createdAt,value
2018-07-27T00:00:38.410Z,22.03
2018-07-27T00:03:13.882Z,22.07
2018-07-27T00:05:48.896Z,21.96
2018-07-27T00:08:25.226Z,21.74
2018-07-27T00:11:01.528Z,21.71
2018-07-27T00:13:37.310Z,21.78
2018-07-27T00:16:13.735Z,21.69
2018-07-27T00:18:48.542Z,21.55
2018-07-27T00:21:24.646Z,21.06
2018-07-27T00:24:00.723Z,21.44
2018-07-27T00:26:36.271Z,21.35
2018-07-27T00:29:13.199Z,21.51
2018-07-27T00:31:50.405Z,20.92
2018-07-27T00:34:26.337Z,20.82
2018-07-27T00:37:20.283Z,21.22
2018-07-27T00:39:56.089Z,21.35
2018-07-27T00:42:30.676Z,21.32
2018-07-27T00:45:04.998Z,21.34
2018-07-27T00:47:36.247Z,21.20
2018-07-27T00:50:14.087Z,20.72
2018-07-27T00:52:46.520Z,20.74
2018-07-27T00:55:22.941Z,20.87
2018-07-27T00:57:56.905Z,20.88
2018-07-27T01:00:39.071Z,20.89
2018-07-27T01:03:18.340Z,20.97
2018-07-27T01:05:52.740Z,20.82
2018-07-27T01:08:27.405Z,20.45
2018-07-27T01:11:04.156Z,20.47
2018-07-27T01:13:42.380Z,20.49
2018-07-27T01:16:19.517Z,20.82
2018-07-27T01:18:56.043Z,20.91
2018-07-27T01:21:45.428Z,20.91
2018-07-27T01:24:23.134Z,20.96
2018-07-27T01:26:59.460Z,20.85
2018-07-27T01:29:33.926Z,20.24
2018-07-27T01:32:11.399Z,20.18
2018-07-27T01:34:46.911Z,20.31
2018-07-27T01:37:24.074Z,20.58
2018-07-27T01:40:01.385Z,20.37
2018-07-27T01:42:37.405Z,20.45
2018-07-27T01:45:15.296Z,20.39
2018-07-27T01:47:51.636Z,20.34
2018-07-27T01:50:25.126Z,20.25
2018-07-27T01:52:58.748Z,20.03
2018-07-27T01:55:33.004Z,19.84
2018-07-27T01:58:08.480Z,19.89
2018-07-27T02:00:44.266Z,19.73
2018-07-27T02:03:19.753Z,19.71
2018-07-27T02:05:55.287Z,19.53
2018-07-27T02:08:31.338Z,19.76
2018-07-27T02:11:06.709Z,19.90
2018-07-27T02:13:42.206Z,19.98
2018-07-27T02:16:17.893Z,19.92
2018-07-27T02:18:51.817Z,20.05
2018-07-27T02:21:27.027Z,19.75
2018-07-27T02:24:02.725Z,19.90
2018-07-27T02:26:38.474Z,19.77
2018-07-27T02:29:07.238Z,19.80
2018-07-27T02:31:35.825Z,19.57
2018-07-27T02:34:04.377Z,19.63
2018-07-27T02:36:50.035Z,19.84
2018-07-27T02:39:33.541Z,19.87
2018-07-27T02:42:08.614Z,19.69
2018-07-27T02:44:42.161Z,19.56
2018-07-27T02:47:14.613Z,19.74
2018-07-27T02:49:55.732Z,19.75
2018-07-27T02:52:31.638Z,19.37
2018-07-27T02:55:06.258Z,19.14
2018-07-27T02:57:40.747Z,19.32
2018-07-27T03:00:16.513Z,19.31
2018-07-27T03:02:51.930Z,19.47
2018-07-27T03:05:25.418Z,19.64
2018-07-27T03:08:10.187Z,19.38
2018-07-27T03:10:48.554Z,19.23
2018-07-27T03:13:24.391Z,19.23
2018-07-27T03:15:56.611Z,19.17
2018-07-27T03:18:31.064Z,19.23
2018-07-27T03:20:59.728Z,19.47
2018-07-27T03:23:40.008Z,19.38
2018-07-27T03:26:08.613Z,19.36
2018-07-27T03:28:37.131Z,19.52
2018-07-27T03:31:05.677Z,19.57
2018-07-27T03:33:34.281Z,19.13
2018-07-27T03:36:02.823Z,19.33
2018-07-27T03:38:31.357Z,19.01
2018-07-27T03:40:59.937Z,18.86
2018-07-27T03:43:28.459Z,18.92
2018-07-27T03:45:57.012Z,19.20
2018-07-27T03:48:25.565Z,19.17
2018-07-27T03:50:54.153Z,19.01
2018-07-27T03:53:22.672Z,19.00
2018-07-27T03:55:51.280Z,18.89
2018-07-27T03:58:19.836Z,18.86
2018-07-27T04:00:48.404Z,18.99
2018-07-27T04:03:17.376Z,18.99
2018-07-27T04:05:45.896Z,18.90
2018-07-27T04:08:14.454Z,18.81
2018-07-27T04:10:42.996Z,18.82
2018-07-27T04:13:11.532Z,18.74
2018-07-27T04:15:40.077Z,18.40
2018-07-27T04:18:08.648Z,18.50
2018-07-27T04:20:37.311Z,18.45
2018-07-27T04:23:06.437Z,18.75
2018-07-27T04:25:34.956Z,18.72
2018-07-27T04:28:03.506Z,18.72
2018-07-27T04:30:32.866Z,18.96
2018-07-27T04:33:01.429Z,18.95
2018-07-27T04:35:29.959Z,19.09
2018-07-27T04:37:58.998Z,19.15
2018-07-27T04:40:27.552Z,19.15
2018-07-27T04:42:56.180Z,18.91
2018-07-27T04:45:24.705Z,18.92
2018-07-27T04:47:53.261Z,18.76
2018-07-27T04:50:21.800Z,18.74
2018-07-27T04:52:50.423Z,18.97
2018-07-27T04:55:18.960Z,18.86
2018-07-27T04:57:47.853Z,19.03
2018-07-27T05:00:16.471Z,19.26
2018-07-27T05:02:45.046Z,19.13
2018-07-27T05:05:13.580Z,19.28
2018-07-27T05:07:42.132Z,19.32
2018-07-27T05:10:15.940Z,19.62
2018-07-27T05:12:44.520Z,19.79
2018-07-27T05:15:13.036Z,19.95
2018-07-27T05:17:41.598Z,20.02
2018-07-27T05:20:10.265Z,19.89
2018-07-27T05:22:39.191Z,20.03
2018-07-27T05:25:07.777Z,20.15
2018-07-27T05:27:36.392Z,20.28
2018-07-27T05:30:05.084Z,20.40
2018-07-27T05:32:33.632Z,20.36
2018-07-27T05:35:02.144Z,20.24
2018-07-27T05:37:30.684Z,20.31
2018-07-27T05:39:59.192Z,20.40
2018-07-27T05:42:27.764Z,20.40
2018-07-27T05:44:56.272Z,20.66
2018-07-27T05:47:24.824Z,20.71
2018-07-27T05:49:53.333Z,20.95
2018-07-27T05:52:21.877Z,20.90
2018-07-27T05:54:50.440Z,21.02
2018-07-27T05:57:19.657Z,21.11
2018-07-27T05:59:48.197Z,21.18
2018-07-27T06:02:16.743Z,21.37
2018-07-27T06:04:45.327Z,21.53
2018-07-27T06:07:18.564Z,21.62
2018-07-27T06:09:47.398Z,21.72
2018-07-27T06:12:18.782Z,21.82
2018-07-27T06:14:47.805Z,21.92
2018-07-27T06:17:16.556Z,21.93
2018-07-27T06:19:45.108Z,22.17
2018-07-27T06:22:13.621Z,22.23
2018-07-27T06:24:54.364Z,22.30
2018-07-27T06:27:25.677Z,22.43
2018-07-27T06:29:55.042Z,22.47
2018-07-27T06:32:23.572Z,22.65
2018-07-27T06:34:52.131Z,22.75
2018-07-27T06:37:20.680Z,22.90
2018-07-27T06:39:49.741Z,22.99
2018-07-27T06:42:18.321Z,23.12
2018-07-27T06:44:46.909Z,23.25
2018-07-27T06:47:15.466Z,23.35
2018-07-27T06:49:44.015Z,23.61
2018-07-27T06:52:12.580Z,23.73
2018-07-27T06:54:41.140Z,23.83
2018-07-27T06:57:09.688Z,23.90
2018-07-27T06:59:38.250Z,24.01
2018-07-27T07:02:06.802Z,24.15
2018-07-27T07:04:35.341Z,24.31
2018-07-27T07:07:03.860Z,24.48
2018-07-27T07:09:32.422Z,24.53
2018-07-27T07:12:00.955Z,24.57
2018-07-27T07:14:35.126Z,24.74
2018-07-27T07:17:11.598Z,24.90
2018-07-27T07:19:47.290Z,25.00
2018-07-27T07:22:16.100Z,25.07
2018-07-27T07:24:44.932Z,25.10
2018-07-27T07:27:13.444Z,25.28
2018-07-27T07:29:48.077Z,25.31
2018-07-27T07:32:18.965Z,25.38
2018-07-27T07:34:47.607Z,25.39
2018-07-27T07:37:16.138Z,25.63
2018-07-27T07:39:51.293Z,25.73
2018-07-27T07:42:20.840Z,25.75
2018-07-27T07:44:49.392Z,25.73
2018-07-27T07:47:17.908Z,25.77
2018-07-27T07:49:50.555Z,25.88
2018-07-27T07:52:19.276Z,26.06
2018-07-27T07:54:47.825Z,26.15
2018-07-27T07:57:22.633Z,26.14
2018-07-27T07:59:51.344Z,26.33
2018-07-27T08:02:20.956Z,26.36
2018-07-27T08:04:49.599Z,26.54
2018-07-27T08:07:18.159Z,26.62
2018-07-27T08:09:46.692Z,26.60
2018-07-27T08:12:18.040Z,26.76
2018-07-27T08:14:46.608Z,26.81
2018-07-27T08:17:17.300Z,26.90
2018-07-27T08:19:47.210Z,27.04
2018-07-27T08:22:22.395Z,27.19
2018-07-27T08:24:54.976Z,27.19
2018-07-27T08:27:25.821Z,27.36
2018-07-27T08:29:54.780Z,27.56
2018-07-27T08:32:26.665Z,27.57
2018-07-27T08:34:57.076Z,27.59
2018-07-27T08:37:25.604Z,27.72
2018-07-27T08:39:54.936Z,27.77
2018-07-27T08:42:23.513Z,27.98
2018-07-27T08:44:52.052Z,28.06
2018-07-27T08:47:21.296Z,28.10
2018-07-27T08:49:49.836Z,27.97
2018-07-27T08:52:18.400Z,28.06
2018-07-27T08:54:46.961Z,28.13
2018-07-27T08:57:15.721Z,28.25
2018-07-27T08:59:44.288Z,28.29
2018-07-27T09:02:12.824Z,28.31
2018-07-27T09:04:41.342Z,28.46
2018-07-27T09:07:09.892Z,28.50
2018-07-27T09:09:38.405Z,28.68
2018-07-27T09:12:07.272Z,28.90
2018-07-27T09:14:35.781Z,28.93
2018-07-27T09:17:04.340Z,29.11
2018-07-27T09:19:34.822Z,28.98
2018-07-27T09:22:03.533Z,29.17
2018-07-27T09:24:32.265Z,29.18
2018-07-27T09:27:00.657Z,29.24
2018-07-27T09:29:29.217Z,29.33
2018-07-27T09:31:58.693Z,29.60
2018-07-27T09:34:27.213Z,29.97
2018-07-27T09:36:56.214Z,29.53
2018-07-27T09:39:24.816Z,29.58
2018-07-27T09:41:53.396Z,29.58
2018-07-27T09:44:22.930Z,29.81
2018-07-27T09:46:51.845Z,29.68
2018-07-27T09:49:22.341Z,29.65
2018-07-27T09:51:52.852Z,29.94
2018-07-27T09:54:22.121Z,30.46
2018-07-27T09:56:50.681Z,30.25
2018-07-27T09:59:19.241Z,30.25
2018-07-27T10:01:47.864Z,30.25
2018-07-27T10:04:16.374Z,30.30
2018-07-27T10:06:44.913Z,30.51
2018-07-27T10:09:13.560Z,30.73
2018-07-27T10:11:42.116Z,30.61
2018-07-27T10:14:10.633Z,30.70
2018-07-27T10:16:39.335Z,30.86
2018-07-27T10:19:07.989Z,30.65
2018-07-27T10:21:36.545Z,30.70
2018-07-27T10:24:05.129Z,30.67
2018-07-27T10:26:34.004Z,31.06
2018-07-27T10:29:02.516Z,31.21
2018-07-27T10:31:31.105Z,31.21
2018-07-27T10:34:01.860Z,31.22
2018-07-27T10:36:30.728Z,31.36
2018-07-27T10:38:59.536Z,31.48
2018-07-27T10:41:30.929Z,31.61
2018-07-27T10:44:00.213Z,31.60
2018-07-27T10:46:30.033Z,31.61
2018-07-27T10:48:58.668Z,31.61
2018-07-27T10:51:27.456Z,31.91
2018-07-27T10:53:56.008Z,32.23
2018-07-27T10:56:25.840Z,31.94
2018-07-27T10:58:54.663Z,31.79
2018-07-27T11:01:23.240Z,31.94
2018-07-27T11:03:52.364Z,32.02
2018-07-27T11:06:20.876Z,32.13
2018-07-27T11:08:49.471Z,32.07
2018-07-27T11:11:17.992Z,32.20
2018-07-27T11:13:46.789Z,32.60
2018-07-27T11:16:15.364Z,33.16
2018-07-27T11:18:44.010Z,33.18
2018-07-27T11:21:14.025Z,33.16
2018-07-27T11:23:42.664Z,33.14
2018-07-27T11:26:11.191Z,32.95
2018-07-27T11:28:39.732Z,32.98
2018-07-27T11:31:08.368Z,33.31
2018-07-27T11:33:44.005Z,33.82
2018-07-27T11:36:17.576Z,33.32
2018-07-27T11:38:47.015Z,33.50
2018-07-27T11:41:17.700Z,33.53
2018-07-27T11:43:47.432Z,33.73
2018-07-27T11:46:18.294Z,33.91
2018-07-27T11:48:53.742Z,33.91
2018-07-27T11:51:24.776Z,33.52
2018-07-27T11:53:55.182Z,33.82
2018-07-27T11:56:23.944Z,33.79
2018-07-27T11:58:56.582Z,33.56
2018-07-27T12:01:31.271Z,34.05
2018-07-27T12:04:04.384Z,34.35
2018-07-27T12:06:35.778Z,34.09
2018-07-27T12:09:11.353Z,34.03
2018-07-27T12:11:41.806Z,34.45
2018-07-27T12:14:14.678Z,34.01
2018-07-27T12:16:43.125Z,33.95
2018-07-27T12:19:13.032Z,34.13
2018-07-27T12:21:45.646Z,34.26
2018-07-27T12:24:16.290Z,34.28
2018-07-27T12:26:47.345Z,34.21
2018-07-27T12:29:19.072Z,34.39
2018-07-27T12:31:51.657Z,34.55
2018-07-27T12:34:22.092Z,34.26
2018-07-27T12:36:50.624Z,34.20
2018-07-27T12:39:22.259Z,34.73
2018-07-27T12:41:50.840Z,34.89
2018-07-27T12:44:19.394Z,34.85
2018-07-27T12:46:48.821Z,34.71
2018-07-27T12:49:17.579Z,34.83
2018-07-27T12:51:46.089Z,34.57
2018-07-27T12:54:14.637Z,34.37
2018-07-27T12:56:43.166Z,34.71
2018-07-27T12:59:11.728Z,34.94
2018-07-27T13:01:40.805Z,34.80
2018-07-27T13:04:09.733Z,34.74
2018-07-27T13:06:38.247Z,34.90
2018-07-27T13:09:12.366Z,35.24
2018-07-27T13:11:42.861Z,35.14
2018-07-27T13:14:11.484Z,34.86
2018-07-27T13:16:41.428Z,34.64
2018-07-27T13:19:13.830Z,34.57
2018-07-27T13:21:44.469Z,35.36
2018-07-27T13:24:13.052Z,35.50
2018-07-27T13:26:41.634Z,35.27
2018-07-27T13:29:10.448Z,35.14
2018-07-27T13:31:54.044Z,35.22
2018-07-27T13:34:42.325Z,35.47
2018-07-27T13:37:10.972Z,35.04
2018-07-27T13:39:40.448Z,34.91
2018-07-27T13:42:11.083Z,34.61
2018-07-27T13:44:40.176Z,34.24
2018-07-27T13:47:09.346Z,34.17
2018-07-27T13:49:38.304Z,34.03
2018-07-27T13:52:06.884Z,34.09
2018-07-27T13:54:35.927Z,33.58
2018-07-27T13:57:04.571Z,33.35
2018-07-27T13:59:33.099Z,33.70
2018-07-27T14:02:01.656Z,33.78
2018-07-27T14:04:30.232Z,33.91
2018-07-27T14:06:59.983Z,33.84
2018-07-27T14:09:28.530Z,33.86
2018-07-27T14:11:57.226Z,33.93
2018-07-27T14:14:26.320Z,33.94
2018-07-27T14:16:54.864Z,33.86
2018-07-27T14:19:24.072Z,33.93
2018-07-27T14:21:53.333Z,33.88
2018-07-27T14:24:22.005Z,33.78
2018-07-27T14:26:50.570Z,33.78
2018-07-27T14:29:19.697Z,33.87
2018-07-27T14:31:48.352Z,33.76
2018-07-27T14:34:16.865Z,33.63
2018-07-27T14:36:45.444Z,33.38
2018-07-27T14:39:15.560Z,33.42
2018-07-27T14:41:44.815Z,33.43
2018-07-27T14:44:13.440Z,33.52
2018-07-27T14:46:42.017Z,33.69
2018-07-27T14:49:14.335Z,33.97
2018-07-27T14:51:44.351Z,34.28
2018-07-27T14:54:14.070Z,34.46
2018-07-27T14:56:43.203Z,34.73
2018-07-27T14:59:12.142Z,34.76
2018-07-27T15:01:41.421Z,34.58
2018-07-27T15:04:11.612Z,34.99
2018-07-27T15:06:40.685Z,35.12
2018-07-27T15:09:12.796Z,35.42
2018-07-27T15:11:41.747Z,35.14
2018-07-27T15:14:10.440Z,34.97
2018-07-27T15:16:39.224Z,34.73
2018-07-27T15:19:07.764Z,34.49
2018-07-27T15:21:36.360Z,34.70
2018-07-27T15:24:05.449Z,34.61
2018-07-27T15:26:34.648Z,34.89
2018-07-27T15:29:04.525Z,35.39
2018-07-27T15:31:33.137Z,35.68
2018-07-27T15:34:04.489Z,35.97
2018-07-27T15:36:33.041Z,35.93
2018-07-27T15:39:01.720Z,36.32
2018-07-27T15:41:30.296Z,36.33
2018-07-27T15:43:58.812Z,36.15
2018-07-27T15:46:27.776Z,36.41
2018-07-27T15:48:56.559Z,36.18
2018-07-27T15:51:25.698Z,36.24
2018-07-27T15:53:54.860Z,35.96
2018-07-27T15:56:23.572Z,36.43
2018-07-27T15:58:54.448Z,36.83
2018-07-27T16:01:26.657Z,36.51
2018-07-27T16:03:56.348Z,36.86
2018-07-27T16:06:24.864Z,36.96
2018-07-27T16:08:53.525Z,37.04
2018-07-27T16:11:26.187Z,36.96
2018-07-27T16:13:54.924Z,36.68
2018-07-27T16:16:23.606Z,36.91
2018-07-27T16:18:52.296Z,36.51
2018-07-27T16:21:21.056Z,36.79
2018-07-27T16:23:50.725Z,36.79
2018-07-27T16:26:19.412Z,36.91
2018-07-27T16:28:48.953Z,37.13
2018-07-27T16:31:17.886Z,36.91
2018-07-27T16:33:46.472Z,36.80
2018-07-27T16:36:15.154Z,37.44
2018-07-27T16:38:44.860Z,37.32
2018-07-27T16:41:13.476Z,36.85
2018-07-27T16:43:44.212Z,36.91
2018-07-27T16:46:13.640Z,37.15
2018-07-27T16:48:42.345Z,37.34
2018-07-27T16:51:10.868Z,36.81
2018-07-27T16:53:40.253Z,36.93
2018-07-27T16:56:08.875Z,37.07
2018-07-27T16:58:37.883Z,37.38
2018-07-27T17:01:06.877Z,37.14
2018-07-27T17:03:35.888Z,37.09
2018-07-27T17:06:04.925Z,38.21
2018-07-27T17:08:35.789Z,40.04
2018-07-27T17:11:05.903Z,41.13
2018-07-27T17:13:36.864Z,43.59
2018-07-27T17:16:06.555Z,42.00
2018-07-27T17:18:35.353Z,42.75
2018-07-27T17:21:05.228Z,42.04
2018-07-27T17:23:35.986Z,41.98
2018-07-27T17:26:05.838Z,41.74
2018-07-27T17:28:34.873Z,42.90
2018-07-27T17:31:03.801Z,43.36
2018-07-27T17:33:35.579Z,42.89
2018-07-27T17:36:04.264Z,43.16
2018-07-27T17:38:33.917Z,43.19
2018-07-27T17:41:02.492Z,41.79
2018-07-27T17:43:31.587Z,40.21
2018-07-27T17:46:00.397Z,40.01
2018-07-27T17:48:29.574Z,40.27
2018-07-27T17:50:58.651Z,36.91
2018-07-27T17:53:28.097Z,36.76
2018-07-27T17:55:57.237Z,38.15
2018-07-27T17:58:25.792Z,39.21
2018-07-27T18:00:54.303Z,38.39
2018-07-27T18:03:22.853Z,37.76
2018-07-27T18:05:51.431Z,37.57
2018-07-27T18:08:19.975Z,36.82
2018-07-27T18:10:49.660Z,34.71
2018-07-27T18:13:20.796Z,34.05
2018-07-27T18:15:51.441Z,34.24
2018-07-27T18:18:21.395Z,34.06
2018-07-27T18:20:52.047Z,33.70
2018-07-27T18:23:22.417Z,33.05
2018-07-27T18:25:52.085Z,32.89
2018-07-27T18:28:21.756Z,32.66
2018-07-27T18:30:52.325Z,32.05
2018-07-27T18:33:21.506Z,31.98
2018-07-27T18:35:51.714Z,31.99
2018-07-27T18:38:22.328Z,31.64
2018-07-27T18:40:52.356Z,31.27
2018-07-27T18:43:21.620Z,31.09
2018-07-27T18:45:52.333Z,30.99
2018-07-27T18:48:21.796Z,30.51
2018-07-27T18:50:52.208Z,30.37
2018-07-27T18:53:22.184Z,30.26
2018-07-27T18:55:51.714Z,29.96
2018-07-27T18:58:23.179Z,29.62
2018-07-27T19:00:51.729Z,29.36
2018-07-27T19:03:21.418Z,29.35
2018-07-27T19:05:50.560Z,29.12
2018-07-27T19:08:19.192Z,28.87
2018-07-27T19:10:47.736Z,28.84
2018-07-27T19:13:16.256Z,28.53
2018-07-27T19:15:44.801Z,28.39
2018-07-27T19:18:14.004Z,27.99
2018-07-27T19:20:42.592Z,27.64
2018-07-27T19:23:13.233Z,27.72
2018-07-27T19:25:42.474Z,27.49
2018-07-27T19:28:11.056Z,27.58
2018-07-27T19:30:40.256Z,27.69
2018-07-27T19:33:08.764Z,27.70
2018-07-27T19:35:37.908Z,27.57
2018-07-27T19:38:07.819Z,27.39
2018-07-27T19:40:37.809Z,27.02
2018-07-27T19:43:06.455Z,26.72
2018-07-27T19:45:35.001Z,26.68
2018-07-27T19:48:03.516Z,26.65
2018-07-27T19:50:32.325Z,26.61
2018-07-27T19:53:01.244Z,26.63
2018-07-27T19:55:29.935Z,26.49
2018-07-27T19:57:58.464Z,26.43
2018-07-27T20:00:27.012Z,25.89
2018-07-27T20:02:55.547Z,24.61
2018-07-27T20:05:24.596Z,25.32
2018-07-27T20:07:53.100Z,25.58
2018-07-27T20:10:21.764Z,25.65
2018-07-27T20:12:50.281Z,25.62
2018-07-27T20:15:18.839Z,25.58
2018-07-27T20:17:47.576Z,25.65
2018-07-27T20:20:16.137Z,25.50
2018-07-27T20:22:44.641Z,25.67
2018-07-27T20:25:13.169Z,25.48
2018-07-27T20:27:41.739Z,25.55
2018-07-27T20:30:10.261Z,25.50
2018-07-27T20:32:38.815Z,25.30
2018-07-27T20:35:07.353Z,25.21
2018-07-27T20:37:36.847Z,25.17
2018-07-27T20:40:06.603Z,25.07
2018-07-27T20:42:38.163Z,25.02
2018-07-27T20:45:07.296Z,24.92
2018-07-27T20:47:37.670Z,24.89
2018-07-27T20:50:06.772Z,24.64
2018-07-27T20:52:36.484Z,24.55
2018-07-27T20:55:08.779Z,24.42
2018-07-27T20:57:43.987Z,24.49
2018-07-27T21:00:13.909Z,24.33
2018-07-27T21:02:43.955Z,24.11
2018-07-27T21:05:13.216Z,23.66
2018-07-27T21:07:42.404Z,23.77
2018-07-27T21:10:11.931Z,23.79
2018-07-27T21:12:44.520Z,23.42
2018-07-27T21:15:13.084Z,23.49
2018-07-27T21:17:41.672Z,23.52
2018-07-27T21:20:10.652Z,23.60
2018-07-27T21:22:39.193Z,23.60
2018-07-27T21:25:07.832Z,23.70
2018-07-27T21:27:36.389Z,23.73
2018-07-27T21:30:05.216Z,23.86
2018-07-27T21:32:33.784Z,23.93
2018-07-27T21:35:02.299Z,23.76
2018-07-27T21:37:33.100Z,23.73
2018-07-27T21:40:05.652Z,23.73
2018-07-27T21:42:36.352Z,23.22
2018-07-27T21:45:07.584Z,23.11
2018-07-27T21:47:41.275Z,23.22
2018-07-27T21:50:11.982Z,23.20
2018-07-27T21:52:41.948Z,23.37
2018-07-27T21:55:13.672Z,23.25
2018-07-27T21:57:47.167Z,23.25
2018-07-27T22:00:17.924Z,23.16
2018-07-27T22:02:49.899Z,23.29
2018-07-27T22:05:20.722Z,23.05
2018-07-27T22:07:55.519Z,22.98
2018-07-27T22:10:26.650Z,22.99
2018-07-27T22:13:00.512Z,22.39
2018-07-27T22:15:30.175Z,22.42
2018-07-27T22:17:59.798Z,22.35
2018-07-27T22:20:33.158Z,22.75
2018-07-27T22:23:02.083Z,22.49
2018-07-27T22:25:35.089Z,22.47
2018-07-27T22:28:04.980Z,22.38
2018-07-27T22:30:35.619Z,22.28
2018-07-27T22:33:07.815Z,22.44
2018-07-27T22:35:40.043Z,22.47
2018-07-27T22:38:13.103Z,22.51
2018-07-27T22:40:45.354Z,22.53
2018-07-27T22:43:16.617Z,22.63
2018-07-27T22:45:47.264Z,22.47
2018-07-27T22:48:16.814Z,22.50
2018-07-27T22:50:46.644Z,22.54
2018-07-27T22:53:16.894Z,22.39
2018-07-27T22:55:46.768Z,22.21
2018-07-27T22:58:20.911Z,22.19
2018-07-27T23:00:50.413Z,21.90
2018-07-27T23:03:20.004Z,21.35
2018-07-27T23:05:50.928Z,21.62
2018-07-27T23:08:22.282Z,21.94
2018-07-27T23:10:52.552Z,21.82
2018-07-27T23:13:22.430Z,22.01
2018-07-27T23:15:54.409Z,21.57
2018-07-27T23:18:30.219Z,21.17
2018-07-27T23:21:04.088Z,21.23
2018-07-27T23:23:36.817Z,21.20
2018-07-27T23:26:06.930Z,21.55
2018-07-27T23:28:36.128Z,21.61
2018-07-27T23:31:04.841Z,21.44
2018-07-27T23:33:33.640Z,21.22
2018-07-27T23:36:02.145Z,21.39
2018-07-27T23:38:30.692Z,21.08
2018-07-27T23:40:59.224Z,21.33
2018-07-27T23:43:27.801Z,21.07
2018-07-27T23:45:56.924Z,20.48
2018-07-27T23:48:25.607Z,20.67
2018-07-27T23:50:54.136Z,20.96
2018-07-27T23:53:23.761Z,20.74
2018-07-27T23:55:52.335Z,20.84
2018-07-27T23:58:20.864Z,20.81
